Time,TemperatureF,DewpointF,PressureIn,WindDirection,WindDirectionDegrees,WindSpeedMPH,WindSpeedGustMPH,Humidity,HourlyPrecipIn,Conditions,Clouds,dailyrainin,SoftwareType,DateUTC
2013-09-16 00:12:00,65.0,54.0,-100.00,SSE,165,6.0,7.0,67,0.00,,,0.00,,2013-09-16 06:12:00,
2013-09-16 00:43:00,65.0,54.0,-100.00,SE,128,6.0,8.0,66,0.00,,,0.00,,2013-09-16 06:43:00,
2013-09-16 01:11:00,66.0,54.0,-100.00,ESE,121,9.0,12.0,64,0.00,,,0.00,,2013-09-16 07:11:00,
2013-09-16 01:43:00,64.0,54.0,-100.00,ENE,61,4.0,6.0,68,0.00,,,0.00,,2013-09-16 07:43:00,
2013-09-16 02:11:00,65.0,54.0,-100.00,SSW,196,4.0,6.0,67,0.00,,,0.00,,2013-09-16 08:11:00,
2013-09-16 02:42:00,63.0,54.0,-100.00,SSW,193,3.0,4.0,73,0.00,,,0.00,,2013-09-16 08:42:00,
2013-09-16 03:11:00,64.0,54.0,-100.00,SSE,152,9.0,11.0,72,0.00,,,0.00,,2013-09-16 09:11:00,
2013-09-16 04:12:00,64.0,54.0,-100.00,South,175,8.0,10.0,69,0.00,,,0.00,,2013-09-16 10:12:00,
2013-09-16 04:53:00,63.0,54.0,-100.00,SSE,151,3.0,4.0,71,0.00,,,0.00,,2013-09-16 10:53:00,
2013-09-16 05:02:00,63.0,54.0,-100.00,SSE,151,3.0,4.0,71,0.00,,,0.00,,2013-09-16 11:02:00,
2013-09-16 05:22:00,60.0,54.0,-100.00,NE,56,3.0,5.0,81,0.00,,,0.00,,2013-09-16 11:22:00,
2013-09-16 05:33:00,60.0,54.0,-100.00,NE,56,3.0,5.0,81,0.00,,,0.00,,2013-09-16 11:33:00,
2013-09-16 05:52:00,58.0,54.0,-100.00,NE,52,3.0,4.0,84,0.00,,,0.00,,2013-09-16 11:52:00,
2013-09-16 06:01:00,58.0,54.0,-100.00,NE,52,3.0,4.0,84,0.00,,,0.00,,2013-09-16 12:01:00,
2013-09-16 06:22:00,60.0,54.0,-100.00,East,88,0.0,2.0,79,0.00,,,0.00,,2013-09-16 12:22:00,
2013-09-16 06:32:00,60.0,54.0,-100.00,East,88,0.0,2.0,79,0.00,,,0.00,,2013-09-16 12:32:00,
2013-09-16 06:52:00,60.0,53.0,-100.00,North,4,2.0,3.0,79,0.00,,,0.00,,2013-09-16 12:52:00,
2013-09-16 07:02:00,60.0,53.0,-100.00,North,4,2.0,3.0,79,0.00,,,0.00,,2013-09-16 13:02:00,
2013-09-16 07:21:00,58.0,53.0,-100.00,NW,312,1.0,3.0,83,0.00,,,0.00,,2013-09-16 13:21:00,
2013-09-16 07:32:00,58.0,53.0,-100.00,NW,312,1.0,3.0,83,0.00,,,0.00,,2013-09-16 13:32:00,
2013-09-16 07:52:00,56.0,52.0,-100.00,ENE,62,4.0,5.0,85,0.00,,,0.00,,2013-09-16 13:52:00,
2013-09-16 08:02:00,56.0,52.0,-100.00,ENE,62,4.0,5.0,85,0.00,,,0.00,,2013-09-16 14:02:00,
2013-09-16 08:21:00,57.0,54.0,-100.00,West,264,4.0,6.0,89,0.00,,,0.00,,2013-09-16 14:21:00,
2013-09-16 08:32:00,57.0,54.0,-100.00,West,264,4.0,6.0,89,0.00,,,0.00,,2013-09-16 14:32:00,
2013-09-16 08:52:00,63.0,57.0,-100.00,ESE,119,5.0,7.0,79,0.00,,,0.00,,2013-09-16 14:52:00,
2013-09-16 09:02:00,63.0,57.0,-100.00,ESE,119,5.0,7.0,79,0.00,,,0.00,,2013-09-16 15:02:00,
2013-09-16 09:11:00,63.0,57.0,-100.00,ESE,119,5.0,7.0,79,0.00,,,0.00,,2013-09-16 15:11:00,
2013-09-16 09:22:00,61.0,57.0,-100.00,NE,52,4.0,7.0,84,0.00,,,0.00,,2013-09-16 15:22:00,
2013-09-16 09:33:00,61.0,57.0,-100.00,NE,52,4.0,7.0,84,0.00,,,0.00,,2013-09-16 15:33:00,
2013-09-16 09:43:00,61.0,57.0,-100.00,NE,52,4.0,7.0,84,0.00,,,0.00,,2013-09-16 15:43:00,
2013-09-16 11:42:00,78.0,55.0,-100.00,SSE,151,16.0,21.0,45,0.00,,,0.00,,2013-09-16 17:42:00,
2013-09-16 12:42:00,80.0,57.0,-100.00,WSW,253,7.0,9.0,46,0.00,,,0.00,,2013-09-16 18:42:00,
2013-09-16 13:11:00,81.0,56.0,-100.00,West,264,10.0,13.0,41,0.00,,,0.00,,2013-09-16 19:11:00,
2013-09-16 13:42:00,83.0,53.0,-100.00,SW,232,12.0,16.0,36,0.00,,,0.00,,2013-09-16 19:42:00,
2013-09-16 14:11:00,84.0,52.0,-100.00,South,191,13.0,19.0,33,0.00,,,0.00,,2013-09-16 20:11:00,
2013-09-16 14:42:00,86.0,53.0,-100.00,SW,229,10.0,11.0,32,0.00,,,0.00,,2013-09-16 20:42:00,
2013-09-16 14:52:00,86.0,52.0,-100.00,SW,219,8.0,12.0,31,0.00,,,0.00,,2013-09-16 20:52:00,
2013-09-16 15:02:00,86.0,52.0,-100.00,SW,219,8.0,12.0,31,0.00,,,0.00,,2013-09-16 21:02:00,
2013-09-16 15:21:00,87.0,52.0,-100.00,SSW,202,9.0,13.0,30,0.00,,,0.00,,2013-09-16 21:21:00,
2013-09-16 15:34:00,87.0,52.0,-100.00,SSW,202,9.0,13.0,30,0.00,,,0.00,,2013-09-16 21:34:00,
2013-09-16 15:56:00,86.0,51.0,-100.00,SW,220,11.0,14.0,30,0.00,,,0.00,,2013-09-16 21:56:00,
2013-09-16 16:04:00,86.0,51.0,-100.00,SW,220,11.0,14.0,30,0.00,,,0.00,,2013-09-16 22:04:00,
2013-09-16 16:24:00,85.0,51.0,-100.00,WSW,239,9.0,11.0,31,0.00,,,0.00,,2013-09-16 22:24:00,
2013-09-16 16:33:00,85.0,51.0,-100.00,WSW,239,9.0,11.0,31,0.00,,,0.00,,2013-09-16 22:33:00,
2013-09-16 16:53:00,84.0,57.0,-100.00,WSW,247,5.0,8.0,40,0.00,,,0.00,,2013-09-16 22:53:00,
2013-09-16 17:02:00,84.0,57.0,-100.00,WSW,247,5.0,8.0,40,0.00,,,0.00,,2013-09-16 23:02:00,
2013-09-16 17:53:00,83.0,56.0,-100.00,NNW,329,3.0,4.0,39,0.00,,,0.01,,2013-09-16 23:53:00,
2013-09-16 18:02:00,83.0,56.0,-100.00,NNW,329,3.0,4.0,39,0.00,,,0.01,,2013-09-17 00:02:00,
2013-09-16 18:52:00,84.0,48.0,-100.00,South,169,14.0,17.0,29,0.00,,,0.01,,2013-09-17 00:52:00,
2013-09-16 19:02:00,84.0,48.0,-100.00,South,169,14.0,17.0,29,0.00,,,0.01,,2013-09-17 01:02:00,
2013-09-16 19:21:00,82.0,49.0,-100.00,SSE,157,9.0,13.0,32,0.00,,,0.01,,2013-09-17 01:21:00,
2013-09-16 19:32:00,82.0,49.0,-100.00,SSE,157,9.0,13.0,32,0.00,,,0.01,,2013-09-17 01:32:00,
2013-09-16 19:52:00,79.0,49.0,-100.00,SSE,152,10.0,14.0,35,0.00,,,0.01,,2013-09-17 01:52:00,
2013-09-16 20:03:00,79.0,49.0,-100.00,SSE,152,10.0,14.0,35,0.00,,,0.01,,2013-09-17 02:03:00,
2013-09-16 20:22:00,74.0,50.0,-100.00,SSE,150,6.0,8.0,42,0.00,,,0.01,,2013-09-17 02:22:00,
2013-09-16 20:32:00,74.0,50.0,-100.00,SSE,150,6.0,8.0,42,0.00,,,0.01,,2013-09-17 02:32:00,
2013-09-16 20:52:00,71.0,50.0,-100.00,SE,145,8.0,9.0,47,0.00,,,0.01,,2013-09-17 02:52:00,
2013-09-16 21:02:00,71.0,50.0,-100.00,SE,145,8.0,9.0,47,0.00,,,0.01,,2013-09-17 03:02:00,
2013-09-16 21:23:00,73.0,51.0,-100.00,SE,143,10.0,12.0,46,0.00,,,0.01,,2013-09-17 03:23:00,
2013-09-16 21:34:00,73.0,51.0,-100.00,SE,143,10.0,12.0,46,0.00,,,0.01,,2013-09-17 03:34:00,
2013-09-16 21:54:00,72.0,50.0,-100.00,SE,138,9.0,11.0,45,0.00,,,0.01,,2013-09-17 03:54:00,
2013-09-16 22:04:00,72.0,50.0,-100.00,SE,138,9.0,11.0,45,0.00,,,0.01,,2013-09-17 04:04:00,
2013-09-16 22:24:00,72.0,49.0,-100.00,SSE,147,12.0,14.0,44,0.00,,,0.01,,2013-09-17 04:24:00,
2013-09-16 22:34:00,72.0,49.0,-100.00,SSE,147,12.0,14.0,44,0.00,,,0.01,,2013-09-17 04:34:00,
2013-09-16 22:54:00,72.0,48.0,-100.00,SE,138,11.0,14.0,43,0.00,,,0.01,,2013-09-17 04:54:00,
2013-09-16 23:03:00,72.0,48.0,-100.00,SE,138,11.0,14.0,43,0.00,,,0.01,,2013-09-17 05:03:00,
2013-09-16 23:23:00,70.0,48.0,-100.00,South,176,6.0,9.0,44,0.00,,,0.01,,2013-09-17 05:23:00,
2013-09-16 23:34:00,70.0,48.0,-100.00,South,176,6.0,9.0,44,0.00,,,0.01,,2013-09-17 05:34:00,
2013-09-16 23:52:00,76.0,46.0,-100.00,SSW,203,17.0,20.0,35,0.00,,,0.01,,2013-09-17 05:52:00,